createdAt,value
2018-11-14T00:00:03.914Z,7.40
2018-11-14T00:02:31.315Z,6.77
2018-11-14T00:04:58.898Z,7.57
2018-11-14T00:07:26.423Z,7.93
2018-11-14T00:09:53.866Z,7.20
2018-11-14T00:12:21.479Z,6.50
2018-11-14T00:14:48.923Z,7.47
2018-11-14T00:17:16.433Z,7.23
2018-11-14T00:19:44.059Z,7.27
2018-11-14T00:22:11.482Z,7.93
2018-11-14T00:24:38.975Z,9.50
2018-11-14T00:27:06.507Z,7.17
2018-11-14T00:29:34.216Z,7.73
2018-11-14T00:32:01.832Z,7.73
2018-11-14T00:34:29.477Z,8.00
2018-11-14T00:36:57.359Z,10.00
2018-11-14T00:39:24.531Z,8.00
2018-11-14T00:41:52.022Z,7.73
2018-11-14T00:44:19.512Z,7.77
2018-11-14T00:46:47.019Z,7.53
2018-11-14T00:49:14.467Z,7.53
2018-11-14T00:51:42.068Z,7.70
2018-11-14T00:54:09.648Z,7.50
2018-11-14T00:56:37.148Z,8.40
2018-11-14T00:59:04.983Z,8.77
2018-11-14T01:01:32.483Z,9.70
2018-11-14T01:03:59.881Z,8.20
2018-11-14T01:06:27.421Z,9.30
2018-11-14T01:08:54.819Z,9.10
2018-11-14T01:11:22.291Z,7.73
2018-11-14T01:13:49.754Z,9.10
2018-11-14T01:16:17.248Z,8.70
2018-11-14T01:18:45.060Z,8.70
2018-11-14T01:21:12.600Z,10.40
2018-11-14T01:23:40.155Z,8.00
2018-11-14T01:26:07.655Z,8.67
2018-11-14T01:28:35.146Z,8.53
2018-11-14T01:31:02.605Z,9.17
2018-11-14T01:33:30.043Z,9.03
2018-11-14T01:35:57.804Z,7.63
2018-11-14T01:38:24.974Z,7.73
2018-11-14T01:40:52.535Z,9.17
2018-11-14T01:43:19.952Z,10.00
2018-11-14T01:45:47.377Z,9.70
2018-11-14T01:48:14.962Z,11.27
2018-11-14T01:50:42.500Z,8.57
2018-11-14T01:53:09.901Z,8.80
2018-11-14T01:55:37.378Z,8.83
2018-11-14T01:58:05.755Z,10.13
2018-11-14T02:00:33.347Z,9.83
2018-11-14T02:03:00.929Z,8.43
2018-11-14T02:05:28.341Z,8.40
2018-11-14T02:07:55.741Z,9.60
2018-11-14T02:10:23.275Z,9.07
2018-11-14T02:12:50.755Z,7.87
2018-11-14T02:15:22.527Z,9.83
2018-11-14T02:17:52.574Z,10.07
2018-11-14T02:20:21.717Z,10.87
2018-11-14T02:22:49.129Z,9.70
2018-11-14T02:25:17.908Z,10.80
2018-11-14T02:27:45.658Z,11.40
2018-11-14T02:30:16.369Z,10.83
2018-11-14T02:32:44.023Z,11.27
2018-11-14T02:35:11.636Z,11.07
2018-11-14T02:37:40.286Z,10.73
2018-11-14T02:40:10.131Z,9.73
2018-11-14T02:42:37.759Z,10.67
2018-11-14T02:45:05.901Z,11.90
2018-11-14T02:47:33.624Z,10.73
2018-11-14T02:50:01.111Z,10.80
2018-11-14T02:52:28.509Z,10.53
2018-11-14T02:54:55.938Z,11.27
2018-11-14T02:57:23.708Z,11.27
2018-11-14T02:59:51.275Z,10.93
2018-11-14T03:02:18.748Z,10.70
2018-11-14T03:04:46.148Z,11.37
2018-11-14T03:07:13.569Z,11.77
2018-11-14T03:09:41.064Z,11.17
2018-11-14T03:12:08.559Z,11.13
2018-11-14T03:14:35.943Z,11.07
2018-11-14T03:17:03.464Z,12.03
2018-11-14T03:19:30.881Z,11.37
2018-11-14T03:21:58.329Z,12.13
2018-11-14T03:24:25.781Z,13.27
2018-11-14T03:26:53.283Z,12.90
2018-11-14T03:29:20.686Z,13.23
2018-11-14T03:31:48.166Z,11.77
2018-11-14T03:34:15.717Z,12.70
2018-11-14T03:36:43.157Z,12.03
2018-11-14T03:39:10.575Z,12.90
2018-11-14T03:41:38.075Z,14.10
2018-11-14T03:44:06.035Z,12.10
2018-11-14T03:46:33.513Z,12.97
2018-11-14T03:49:00.917Z,12.00
2018-11-14T03:51:28.337Z,12.07
2018-11-14T03:53:56.024Z,13.40
2018-11-14T03:56:23.549Z,13.03
2018-11-14T03:58:50.989Z,14.17
2018-11-14T04:01:18.401Z,12.37
2018-11-14T04:03:45.837Z,13.10
2018-11-14T04:06:13.350Z,13.50
2018-11-14T04:08:40.828Z,13.50
2018-11-14T04:11:08.333Z,13.67
2018-11-14T04:13:35.830Z,14.03
2018-11-14T04:16:03.350Z,13.30
2018-11-14T04:18:30.821Z,12.60
2018-11-14T04:20:58.258Z,13.30
2018-11-14T04:23:25.703Z,14.23
2018-11-14T04:25:53.177Z,13.80
2018-11-14T04:28:20.553Z,14.33
2018-11-14T04:30:48.201Z,13.87
2018-11-14T04:33:15.568Z,14.10
2018-11-14T04:35:42.957Z,13.00
2018-11-14T04:38:10.443Z,13.87
2018-11-14T04:40:37.897Z,14.73
2018-11-14T04:43:05.317Z,14.23
2018-11-14T04:45:32.854Z,14.43
2018-11-14T04:48:00.349Z,12.97
2018-11-14T04:50:27.778Z,13.20
2018-11-14T04:52:55.660Z,13.90
2018-11-14T04:55:24.222Z,14.93
2018-11-14T04:57:51.632Z,16.47
2018-11-14T05:00:20.515Z,16.40
2018-11-14T05:02:48.749Z,18.10
2018-11-14T05:05:17.647Z,20.47
2018-11-14T05:07:45.134Z,19.87
2018-11-14T05:10:15.164Z,22.53
2018-11-14T05:12:42.660Z,26.50
2018-11-14T05:15:12.763Z,24.97
2018-11-14T05:17:40.245Z,23.93
2018-11-14T05:20:09.487Z,25.40
2018-11-14T05:22:36.957Z,24.90
2018-11-14T05:25:04.799Z,27.07
2018-11-14T05:27:32.463Z,28.00
2018-11-14T05:29:59.945Z,25.20
2018-11-14T05:32:27.659Z,26.10
2018-11-14T05:34:55.153Z,25.77
2018-11-14T05:37:22.657Z,25.90
2018-11-14T05:39:50.206Z,27.37
2018-11-14T05:42:17.585Z,30.80
2018-11-14T05:44:45.161Z,25.87
2018-11-14T05:47:12.597Z,25.10
2018-11-14T05:49:40.171Z,25.17
2018-11-14T05:52:07.963Z,24.93
2018-11-14T05:54:35.445Z,24.50
2018-11-14T05:57:02.881Z,24.57
2018-11-14T05:59:30.407Z,24.33
2018-11-14T06:01:57.845Z,22.60
2018-11-14T06:04:25.237Z,24.93
2018-11-14T06:06:52.817Z,29.60
2018-11-14T06:09:20.223Z,24.67
2018-11-14T06:11:47.709Z,24.10
2018-11-14T06:14:15.278Z,24.90
2018-11-14T06:16:42.699Z,24.47
2018-11-14T06:19:10.215Z,26.37
2018-11-14T06:21:37.800Z,23.90
2018-11-14T06:24:05.273Z,23.23
2018-11-14T06:26:32.726Z,21.27
2018-11-14T06:29:00.205Z,21.77
2018-11-14T06:31:27.849Z,21.13
2018-11-14T06:33:55.383Z,22.40
2018-11-14T06:36:22.937Z,25.83
2018-11-14T06:38:50.395Z,23.70
2018-11-14T06:41:17.917Z,21.80
2018-11-14T06:43:45.447Z,22.77
2018-11-14T06:46:13.018Z,28.80
2018-11-14T06:48:40.495Z,23.80
2018-11-14T06:51:09.077Z,22.50
2018-11-14T06:53:36.480Z,23.53
2018-11-14T06:56:04.206Z,23.40
2018-11-14T06:58:31.804Z,23.53
2018-11-14T07:00:59.202Z,20.97
2018-11-14T07:03:26.677Z,22.90
2018-11-14T07:05:55.911Z,23.60
2018-11-14T07:08:23.406Z,22.37
2018-11-14T07:10:50.963Z,21.47
2018-11-14T07:13:18.381Z,21.70
2018-11-14T07:15:45.906Z,21.73
2018-11-14T07:18:13.306Z,20.03
2018-11-14T07:20:42.362Z,21.73
2018-11-14T07:23:09.792Z,24.30
2018-11-14T07:25:37.326Z,23.27
2018-11-14T07:28:04.954Z,22.00
2018-11-14T07:30:33.178Z,22.00
2018-11-14T07:33:03.211Z,21.37
2018-11-14T07:35:30.792Z,22.07
2018-11-14T07:38:35.830Z,22.77
2018-11-14T07:41:04.938Z,21.63
2018-11-14T07:43:33.339Z,23.60
2018-11-14T07:46:00.785Z,23.40
2018-11-14T07:48:28.629Z,21.83
2018-11-14T07:50:56.062Z,22.57
2018-11-14T07:53:23.684Z,21.47
2018-11-14T07:55:51.147Z,24.60
2018-11-14T07:58:18.636Z,25.13
2018-11-14T08:00:46.299Z,25.30
2018-11-14T08:03:13.775Z,23.03
2018-11-14T08:05:41.279Z,24.10
2018-11-14T08:08:08.771Z,24.03
2018-11-14T08:10:36.242Z,19.37
2018-11-14T08:13:03.903Z,18.10
2018-11-14T08:15:31.415Z,19.53
2018-11-14T08:17:59.011Z,20.23
2018-11-14T08:20:26.675Z,20.50
2018-11-14T08:22:54.492Z,23.70
2018-11-14T08:25:22.247Z,24.10
2018-11-14T08:27:49.751Z,24.77
2018-11-14T08:30:17.281Z,24.67
2018-11-14T08:32:44.950Z,24.70
2018-11-14T08:35:12.488Z,22.77
2018-11-14T08:37:40.617Z,22.73
2018-11-14T08:40:09.549Z,23.63
2018-11-14T08:42:37.593Z,25.60
2018-11-14T08:45:08.378Z,22.70
2018-11-14T08:47:36.464Z,21.00
2018-11-14T08:50:05.115Z,19.67
2018-11-14T08:52:32.742Z,19.13
2018-11-14T08:55:00.242Z,22.20
2018-11-14T08:57:27.718Z,20.70
2018-11-14T08:59:55.152Z,23.40
2018-11-14T09:02:22.856Z,21.00
2018-11-14T09:04:50.350Z,19.57
2018-11-14T09:07:18.017Z,21.37
2018-11-14T09:09:45.656Z,20.37
2018-11-14T09:12:13.278Z,21.37
2018-11-14T09:14:40.777Z,21.90
2018-11-14T09:17:08.806Z,20.60
2018-11-14T09:19:36.258Z,24.40
2018-11-14T09:22:03.990Z,19.10
2018-11-14T09:24:31.674Z,21.50
2018-11-14T09:26:59.611Z,21.00
2018-11-14T09:29:27.157Z,19.90
2018-11-14T09:31:54.617Z,20.83
2018-11-14T09:34:22.143Z,19.80
2018-11-14T09:36:49.715Z,20.87
2018-11-14T09:39:17.162Z,21.77
2018-11-14T09:41:44.619Z,22.80
2018-11-14T09:44:12.064Z,23.07
2018-11-14T09:46:39.544Z,22.93
2018-11-14T09:49:07.020Z,23.97
2018-11-14T09:51:34.784Z,23.87
2018-11-14T09:54:02.783Z,23.37
2018-11-14T09:56:30.444Z,21.87
2018-11-14T09:58:57.914Z,25.10
2018-11-14T10:01:25.444Z,22.77
2018-11-14T10:03:52.989Z,25.30
2018-11-14T10:06:20.475Z,25.50
2018-11-14T10:08:48.101Z,24.97
2018-11-14T10:11:15.570Z,24.93
2018-11-14T10:13:43.362Z,25.90
2018-11-14T10:16:10.982Z,26.93
2018-11-14T10:18:38.439Z,27.03
2018-11-14T10:21:06.173Z,26.93
2018-11-14T10:23:33.690Z,27.87
2018-11-14T10:26:01.234Z,29.23
2018-11-14T10:28:28.898Z,28.37
2018-11-14T10:30:56.562Z,29.17
2018-11-14T10:33:24.095Z,28.43
2018-11-14T10:35:51.670Z,31.27
2018-11-14T10:38:19.156Z,28.90
2018-11-14T10:40:46.654Z,28.00
2018-11-14T10:43:14.154Z,29.10
2018-11-14T10:45:41.790Z,32.73
2018-11-14T10:48:09.470Z,29.43
2018-11-14T10:50:36.918Z,28.13
2018-11-14T10:53:04.897Z,30.10
2018-11-14T10:55:32.847Z,30.00
2018-11-14T10:58:00.439Z,28.33
2018-11-14T11:00:33.780Z,25.90
2018-11-14T11:03:07.510Z,29.40
2018-11-14T11:05:40.637Z,25.60
2018-11-14T11:08:14.005Z,25.57
2018-11-14T11:10:46.926Z,26.47
2018-11-14T11:13:20.165Z,25.60
2018-11-14T11:15:53.466Z,26.00
2018-11-14T11:18:25.502Z,22.60
2018-11-14T11:20:53.235Z,22.50
2018-11-14T11:23:20.903Z,22.10
2018-11-14T11:25:48.435Z,23.37
2018-11-14T11:28:15.962Z,22.60
2018-11-14T11:30:43.561Z,24.57
2018-11-14T11:33:11.051Z,21.63
2018-11-14T11:35:38.559Z,20.40
2018-11-14T11:38:06.396Z,19.10
2018-11-14T11:40:34.349Z,17.13
2018-11-14T11:43:02.711Z,18.13
2018-11-14T11:45:30.343Z,16.90
2018-11-14T11:47:57.769Z,18.80
2018-11-14T11:50:25.376Z,17.20
2018-11-14T11:52:52.902Z,17.70
2018-11-14T11:55:20.479Z,18.83
2018-11-14T11:57:48.155Z,17.97
2018-11-14T12:00:16.498Z,17.17
2018-11-14T12:02:44.189Z,19.53
2018-11-14T12:05:12.899Z,19.87
2018-11-14T12:07:41.353Z,20.77
2018-11-14T12:10:10.194Z,20.67
2018-11-14T12:12:37.744Z,19.17
2018-11-14T12:15:07.002Z,21.10
2018-11-14T12:17:34.613Z,18.83
2018-11-14T12:20:02.070Z,18.57
2018-11-14T12:22:29.566Z,19.00
2018-11-14T12:24:57.136Z,14.93
2018-11-14T12:27:24.782Z,15.50
2018-11-14T12:29:52.789Z,16.10
2018-11-14T12:32:20.266Z,15.43
2018-11-14T12:34:47.909Z,14.70
2018-11-14T12:37:15.438Z,14.37
2018-11-14T12:39:42.927Z,15.50
2018-11-14T12:42:10.422Z,14.10
2018-11-14T12:44:38.040Z,15.63
2018-11-14T12:47:05.444Z,14.67
2018-11-14T12:49:32.874Z,16.07
2018-11-14T12:52:00.338Z,16.17
2018-11-14T12:54:27.767Z,15.93
2018-11-14T12:56:55.378Z,15.50
2018-11-14T12:59:23.039Z,15.40
2018-11-14T13:01:50.957Z,16.07
2018-11-14T13:04:18.546Z,15.13
2018-11-14T13:06:46.142Z,15.07
2018-11-14T13:09:13.589Z,14.67
2018-11-14T13:11:41.189Z,15.07
2018-11-14T13:14:08.740Z,15.23
2018-11-14T13:16:36.231Z,15.50
2018-11-14T13:19:04.122Z,15.03
2018-11-14T13:21:31.623Z,15.47
2018-11-14T13:23:59.062Z,15.43
2018-11-14T13:26:26.698Z,14.83
2018-11-14T13:28:54.129Z,14.60
2018-11-14T13:31:21.734Z,14.47
2018-11-14T13:33:49.224Z,14.73
2018-11-14T13:36:16.677Z,13.90
2018-11-14T13:38:44.259Z,14.63
2018-11-14T13:41:11.845Z,15.37
2018-11-14T13:43:39.458Z,14.90
2018-11-14T13:46:06.935Z,16.50
2018-11-14T13:48:34.468Z,13.90
2018-11-14T13:51:02.235Z,15.80
2018-11-14T13:53:29.708Z,15.10
2018-11-14T13:55:57.223Z,15.73
2018-11-14T13:58:24.806Z,14.20
2018-11-14T14:00:52.383Z,15.67
2018-11-14T14:03:19.939Z,16.40
2018-11-14T14:05:47.507Z,16.77
2018-11-14T14:08:14.963Z,16.77
2018-11-14T14:10:42.507Z,15.40
2018-11-14T14:13:09.897Z,16.60
2018-11-14T14:15:37.355Z,17.37
2018-11-14T14:18:05.047Z,16.77
2018-11-14T14:20:32.524Z,15.40
2018-11-14T14:22:59.953Z,16.57
2018-11-14T14:25:27.629Z,15.90
2018-11-14T14:27:55.267Z,17.67
2018-11-14T14:30:29.458Z,18.27
2018-11-14T14:32:56.896Z,19.00
2018-11-14T14:35:24.337Z,19.60
2018-11-14T14:37:52.687Z,17.33
2018-11-14T14:40:21.640Z,17.63
2018-11-14T14:42:49.530Z,18.00
2018-11-14T14:45:18.842Z,18.30
2018-11-14T14:47:46.410Z,17.47
2018-11-14T14:50:14.954Z,15.50
2018-11-14T14:52:43.707Z,14.37
2018-11-14T14:55:16.358Z,14.80
2018-11-14T14:57:45.268Z,16.33
2018-11-14T15:00:14.976Z,15.87
2018-11-14T15:02:43.047Z,18.10
2018-11-14T15:05:11.741Z,17.90
2018-11-14T15:07:39.624Z,17.60
2018-11-14T15:10:09.811Z,19.07
2018-11-14T15:12:37.430Z,18.07
2018-11-14T15:15:05.038Z,17.87
2018-11-14T15:17:32.656Z,20.73
2018-11-14T15:20:02.178Z,18.77
2018-11-14T15:22:29.728Z,20.73
2018-11-14T15:24:57.675Z,19.40
2018-11-14T15:27:25.379Z,19.83
2018-11-14T15:29:52.809Z,21.47
2018-11-14T15:32:20.306Z,18.30
2018-11-14T15:34:48.008Z,18.63
2018-11-14T15:37:15.577Z,19.60
2018-11-14T15:39:49.903Z,21.90
2018-11-14T15:42:17.398Z,20.33
2018-11-14T15:44:44.821Z,20.67
2018-11-14T15:47:12.375Z,20.47
2018-11-14T15:49:39.842Z,22.97
2018-11-14T15:52:07.490Z,22.47
2018-11-14T15:54:35.440Z,20.23
2018-11-14T15:57:03.212Z,22.00
2018-11-14T15:59:30.986Z,20.77
2018-11-14T16:01:58.527Z,21.40
2018-11-14T16:04:25.938Z,21.40
2018-11-14T16:06:53.564Z,23.37
2018-11-14T16:09:21.131Z,22.77
2018-11-14T16:11:48.810Z,20.40
2018-11-14T16:14:16.355Z,24.07
2018-11-14T16:16:43.899Z,18.60
2018-11-14T16:19:11.438Z,19.40
2018-11-14T16:21:39.028Z,18.97
2018-11-14T16:24:06.734Z,19.27
2018-11-14T16:26:34.278Z,16.20
2018-11-14T16:29:01.711Z,11.30
2018-11-14T16:31:29.230Z,8.40
2018-11-14T16:33:56.603Z,8.33
2018-11-14T16:36:24.023Z,8.43
2018-11-14T16:38:51.494Z,7.30
2018-11-14T16:41:19.214Z,7.10
2018-11-14T16:43:46.699Z,8.00
2018-11-14T16:46:14.372Z,6.77
2018-11-14T16:48:41.975Z,7.83
2018-11-14T16:51:10.921Z,7.07
2018-11-14T16:53:38.393Z,7.13
2018-11-14T16:56:05.983Z,7.63
2018-11-14T16:58:33.399Z,7.50
2018-11-14T17:01:00.851Z,8.10
2018-11-14T17:03:28.638Z,8.10
2018-11-14T17:05:56.159Z,9.40
2018-11-14T17:08:24.011Z,9.83
2018-11-14T17:10:51.547Z,10.13
2018-11-14T17:13:19.123Z,10.80
2018-11-14T17:15:46.655Z,11.00
2018-11-14T17:18:14.324Z,10.10
2018-11-14T17:20:41.895Z,11.77
2018-11-14T17:23:09.354Z,10.63
2018-11-14T17:25:36.850Z,11.83
2018-11-14T17:28:04.674Z,10.60
2018-11-14T17:30:32.255Z,12.13
2018-11-14T17:32:59.897Z,11.90
2018-11-14T17:35:27.387Z,12.30
2018-11-14T17:37:54.864Z,11.03
2018-11-14T17:40:25.146Z,11.77
2018-11-14T17:42:53.131Z,12.80
2018-11-14T17:45:22.841Z,11.67
2018-11-14T17:47:50.586Z,12.20
2018-11-14T17:50:23.584Z,12.57
2018-11-14T17:52:52.247Z,13.90
2018-11-14T17:55:20.678Z,13.20
2018-11-14T17:57:48.119Z,12.47
2018-11-14T18:00:18.827Z,12.90
2018-11-14T18:02:46.845Z,12.27
2018-11-14T18:05:15.820Z,12.70
2018-11-14T18:07:44.166Z,13.37
2018-11-14T18:10:13.579Z,13.70
2018-11-14T18:12:41.636Z,12.53
2018-11-14T18:15:10.248Z,12.63
2018-11-14T18:17:38.186Z,12.70
2018-11-14T18:20:07.557Z,12.47
2018-11-14T18:22:35.361Z,11.73
2018-11-14T18:25:06.534Z,14.37
2018-11-14T18:27:34.189Z,13.00
2018-11-14T18:30:02.049Z,12.43
2018-11-14T18:32:29.550Z,13.50
2018-11-14T18:34:57.049Z,14.00
2018-11-14T18:37:24.721Z,13.87
2018-11-14T18:39:52.268Z,13.87
2018-11-14T18:42:19.988Z,14.43
2018-11-14T18:44:47.430Z,13.47
2018-11-14T18:47:15.123Z,14.17
2018-11-14T18:49:42.606Z,12.90
2018-11-14T18:52:10.238Z,13.37
2018-11-14T18:54:37.687Z,14.20
2018-11-14T18:57:05.624Z,13.43
2018-11-14T18:59:33.163Z,15.27
2018-11-14T19:02:00.647Z,14.40
2018-11-14T19:04:28.181Z,14.53
2018-11-14T19:06:55.695Z,14.90
2018-11-14T19:09:23.201Z,15.23
2018-11-14T19:11:50.862Z,16.63
2018-11-14T19:14:18.373Z,16.23
2018-11-14T19:16:45.976Z,15.10
2018-11-14T19:19:13.645Z,16.37
2018-11-14T19:21:41.114Z,17.70
2018-11-14T19:24:08.575Z,17.80
2018-11-14T19:26:36.130Z,17.50
2018-11-14T19:29:04.074Z,19.10
2018-11-14T19:31:31.520Z,18.30
2018-11-14T19:33:59.036Z,20.47
2018-11-14T19:36:26.488Z,18.90
2018-11-14T19:38:53.953Z,20.20
2018-11-14T19:41:21.518Z,18.33
2018-11-14T19:43:49.035Z,19.60
2018-11-14T19:46:16.522Z,20.10
2018-11-14T19:48:44.104Z,22.47
2018-11-14T19:51:11.688Z,19.63
2018-11-14T19:53:39.170Z,21.50
2018-11-14T19:56:06.764Z,19.60
2018-11-14T19:58:34.442Z,19.40
2018-11-14T20:01:01.966Z,18.67
2018-11-14T20:03:29.562Z,20.03
2018-11-14T20:05:57.194Z,20.50
2018-11-14T20:08:24.844Z,21.40
2018-11-14T20:10:52.374Z,20.40
2018-11-14T20:13:20.064Z,20.90
2018-11-14T20:15:47.507Z,20.50
2018-11-14T20:18:14.994Z,19.00
2018-11-14T20:20:42.483Z,20.07
2018-11-14T20:23:10.058Z,20.20
2018-11-14T20:25:37.658Z,19.17
2018-11-14T20:28:05.376Z,20.30
2018-11-14T20:30:35.469Z,17.90
2018-11-14T20:33:04.591Z,19.17
2018-11-14T20:35:32.285Z,20.23
2018-11-14T20:38:00.127Z,19.40
2018-11-14T20:40:27.967Z,19.10
2018-11-14T20:42:55.920Z,18.53
2018-11-14T20:45:25.868Z,20.93
2018-11-14T20:47:53.406Z,19.70
2018-11-14T20:50:21.965Z,23.83
2018-11-14T20:52:52.172Z,23.03
2018-11-14T20:55:19.770Z,22.07
2018-11-14T20:57:47.392Z,21.57
2018-11-14T21:00:21.112Z,19.60
2018-11-14T21:02:49.503Z,20.77
2018-11-14T21:05:17.062Z,18.17
2018-11-14T21:07:44.667Z,19.93
2018-11-14T21:10:14.237Z,19.10
2018-11-14T21:12:42.189Z,23.67
2018-11-14T21:15:11.968Z,20.33
2018-11-14T21:17:39.747Z,19.70
2018-11-14T21:20:08.050Z,20.47
2018-11-14T21:22:35.817Z,18.20
2018-11-14T21:25:03.966Z,18.47
2018-11-14T21:27:31.402Z,19.00
2018-11-14T21:29:59.413Z,18.77
2018-11-14T21:32:26.869Z,19.53
2018-11-14T21:34:54.517Z,17.90
2018-11-14T21:37:22.012Z,17.53
2018-11-14T21:39:49.450Z,15.90
2018-11-14T21:42:17.101Z,17.80
2018-11-14T21:44:44.653Z,17.67
2018-11-14T21:52:16.778Z,16.87
2018-11-14T21:54:44.221Z,16.87
2018-11-14T21:57:11.641Z,18.20
2018-11-14T21:59:39.158Z,18.77
2018-11-14T22:02:06.625Z,18.03
2018-11-14T22:04:34.133Z,18.90
2018-11-14T22:07:01.675Z,16.80
2018-11-14T22:09:29.175Z,18.83
2018-11-14T22:11:56.759Z,17.93
2018-11-14T22:14:24.245Z,18.60
2018-11-14T22:16:51.805Z,20.00
2018-11-14T22:19:19.241Z,18.80
2018-11-14T22:21:46.715Z,16.77
2018-11-14T22:24:14.125Z,17.03
2018-11-14T22:26:41.601Z,16.80
2018-11-14T22:29:09.100Z,16.87
2018-11-14T22:31:36.775Z,15.83
2018-11-14T22:34:04.861Z,17.70
2018-11-14T22:36:32.393Z,16.67
2018-11-14T22:38:59.807Z,17.47
2018-11-14T22:41:27.393Z,16.50
2018-11-14T22:43:54.980Z,17.60
2018-11-14T22:46:22.384Z,17.07
2018-11-14T22:48:49.826Z,16.13
2018-11-14T22:51:17.317Z,15.00
2018-11-14T22:53:44.811Z,17.43
2018-11-14T22:56:12.293Z,15.80
2018-11-14T22:58:39.755Z,16.57
2018-11-14T23:01:07.233Z,16.10
2018-11-14T23:03:34.715Z,16.03
2018-11-14T23:06:02.302Z,16.33
2018-11-14T23:08:29.711Z,15.60
2018-11-14T23:10:57.321Z,15.53
2018-11-14T23:13:24.901Z,14.90
2018-11-14T23:15:52.383Z,16.07
2018-11-14T23:18:19.789Z,16.40
2018-11-14T23:20:47.347Z,17.00
2018-11-14T23:23:14.870Z,16.40
2018-11-14T23:25:42.273Z,16.37
2018-11-14T23:28:10.661Z,15.60
2018-11-14T23:30:38.102Z,16.27
2018-11-14T23:33:05.581Z,16.53
2018-11-14T23:35:33.021Z,16.00
2018-11-14T23:38:02.828Z,15.90
2018-11-14T23:40:30.621Z,16.90
2018-11-14T23:42:58.095Z,16.30
2018-11-14T23:45:26.347Z,15.80
2018-11-14T23:47:53.889Z,16.20
2018-11-14T23:50:23.813Z,17.10
2018-11-14T23:52:52.527Z,16.27
2018-11-14T23:55:20.810Z,17.20
2018-11-14T23:57:48.546Z,15.87
